sensor_id;sensor_type;location;lat;lon;timestamp;pressure;altitude;pressure_sealevel;temperature;humidity
19576;BME280;41589;51.196;7.074;2022-12-29T00:02:37;97777.31;;;10.19;100.00
19576;BME280;41589;51.196;7.074;2022-12-29T00:07:40;97775.09;;;10.23;100.00
19576;BME280;41589;51.196;7.074;2022-12-29T00:12:45;97766.31;;;10.16;100.00
19576;BME280;41589;51.196;7.074;2022-12-29T00:18:05;97758.63;;;10.16;100.00
19576;BME280;41589;51.196;7.074;2022-12-29T00:23:08;97741.28;;;10.18;100.00
19576;BME280;41589;51.196;7.074;2022-12-29T00:28:27;97727.13;;;10.32;100.00
19576;BME280;41589;51.196;7.074;2022-12-29T00:33:55;97731.03;;;10.14;100.00
19576;BME280;41589;51.196;7.074;2022-12-29T00:39:17;97727.63;;;10.31;100.00
19576;BME280;41589;51.196;7.074;2022-12-29T00:44:37;97718.91;;;10.29;100.00
19576;BME280;41589;51.196;7.074;2022-12-29T00:49:37;97712.41;;;10.43;100.00
19576;BME280;41589;51.196;7.074;2022-12-29T00:54:39;97718.66;;;10.53;100.00
19576;BME280;41589;51.196;7.074;2022-12-29T00:59:41;97717.88;;;10.52;100.00
19576;BME280;41589;51.196;7.074;2022-12-29T01:04:42;97718.94;;;10.55;100.00
19576;BME280;41589;51.196;7.074;2022-12-29T01:09:45;97700.22;;;10.52;100.00
19576;BME280;41589;51.196;7.074;2022-12-29T01:15:05;97692.47;;;10.41;100.00
19576;BME280;41589;51.196;7.074;2022-12-29T01:20:06;97707.94;;;10.57;100.00
19576;BME280;41589;51.196;7.074;2022-12-29T01:25:07;97694.31;;;10.50;100.00
19576;BME280;41589;51.196;7.074;2022-12-29T01:30:09;97734.81;;;10.58;100.00
19576;BME280;41589;51.196;7.074;2022-12-29T01:35:10;97716.56;;;10.74;100.00
19576;BME280;41589;51.196;7.074;2022-12-29T01:40:13;97689.34;;;10.65;100.00
19576;BME280;41589;51.196;7.074;2022-12-29T01:45:15;97704.63;;;10.58;100.00
19576;BME280;41589;51.196;7.074;2022-12-29T01:50:23;97703.94;;;10.63;100.00
19576;BME280;41589;51.196;7.074;2022-12-29T01:55:27;97703.53;;;10.76;100.00
19576;BME280;41589;51.196;7.074;2022-12-29T02:00:31;97681.50;;;10.75;100.00
19576;BME280;41589;51.196;7.074;2022-12-29T02:05:42;97692.44;;;10.67;100.00
19576;BME280;41589;51.196;7.074;2022-12-29T02:10:47;97695.34;;;10.78;100.00
19576;BME280;41589;51.196;7.074;2022-12-29T02:27:01;97675.63;;;10.73;100.00
19576;BME280;41589;51.196;7.074;2022-12-29T02:37:42;97651.31;;;10.43;100.00
19576;BME280;41589;51.196;7.074;2022-12-29T02:42:46;97658.84;;;10.58;100.00
19576;BME280;41589;51.196;7.074;2022-12-29T02:48:08;97649.13;;;10.59;100.00
19576;BME280;41589;51.196;7.074;2022-12-29T02:53:15;97644.56;;;10.61;100.00
19576;BME280;41589;51.196;7.074;2022-12-29T02:58:38;97628.47;;;10.67;100.00
19576;BME280;41589;51.196;7.074;2022-12-29T03:08:55;97645.94;;;10.71;100.00
19576;BME280;41589;51.196;7.074;2022-12-29T03:14:17;97617.03;;;10.77;100.00
19576;BME280;41589;51.196;7.074;2022-12-29T03:19:46;97617.81;;;10.77;100.00
19576;BME280;41589;51.196;7.074;2022-12-29T03:25:03;97612.81;;;10.92;100.00
19576;BME280;41589;51.196;7.074;2022-12-29T03:30:06;97616.13;;;10.91;100.00
19576;BME280;41589;51.196;7.074;2022-12-29T03:35:08;97609.94;;;10.87;100.00
19576;BME280;41589;51.196;7.074;2022-12-29T03:40:12;97614.03;;;10.86;100.00
19576;BME280;41589;51.196;7.074;2022-12-29T03:45:13;97609.94;;;10.87;100.00
19576;BME280;41589;51.196;7.074;2022-12-29T03:50:19;97601.97;;;10.80;100.00
19576;BME280;41589;51.196;7.074;2022-12-29T03:55:22;97601.25;;;10.85;100.00
19576;BME280;41589;51.196;7.074;2022-12-29T04:00:23;97595.34;;;10.83;100.00
19576;BME280;41589;51.196;7.074;2022-12-29T04:05:26;97576.44;;;10.89;100.00
19576;BME280;41589;51.196;7.074;2022-12-29T04:10:32;97576.94;;;10.87;100.00
19576;BME280;41589;51.196;7.074;2022-12-29T04:15:36;97573.41;;;10.92;100.00
19576;BME280;41589;51.196;7.074;2022-12-29T04:20:36;97566.00;;;10.95;100.00
19576;BME280;41589;51.196;7.074;2022-12-29T04:25:58;97555.72;;;10.92;100.00
19576;BME280;41589;51.196;7.074;2022-12-29T04:31:02;97571.56;;;10.84;100.00
19576;BME280;41589;51.196;7.074;2022-12-29T04:36:08;97582.06;;;10.89;100.00
19576;BME280;41589;51.196;7.074;2022-12-29T04:41:11;97578.03;;;10.95;100.00
19576;BME280;41589;51.196;7.074;2022-12-29T04:46:13;97592.88;;;11.01;100.00
19576;BME280;41589;51.196;7.074;2022-12-29T04:51:23;97589.34;;;11.07;100.00
19576;BME280;41589;51.196;7.074;2022-12-29T04:56:24;97583.66;;;11.01;100.00
19576;BME280;41589;51.196;7.074;2022-12-29T05:01:25;97608.66;;;11.19;100.00
19576;BME280;41589;51.196;7.074;2022-12-29T05:06:26;97608.03;;;11.10;100.00
19576;BME280;41589;51.196;7.074;2022-12-29T05:11:35;97596.75;;;11.04;100.00
19576;BME280;41589;51.196;7.074;2022-12-29T05:16:40;97601.41;;;11.13;100.00
19576;BME280;41589;51.196;7.074;2022-12-29T05:21:40;97599.44;;;11.19;100.00
19576;BME280;41589;51.196;7.074;2022-12-29T05:26:42;97611.72;;;11.21;100.00
19576;BME280;41589;51.196;7.074;2022-12-29T05:32:05;97615.53;;;11.18;100.00
19576;BME280;41589;51.196;7.074;2022-12-29T05:37:06;97626.53;;;11.16;100.00
19576;BME280;41589;51.196;7.074;2022-12-29T05:42:07;97619.63;;;11.17;100.00
19576;BME280;41589;51.196;7.074;2022-12-29T05:47:27;97616.50;;;11.10;100.00
19576;BME280;41589;51.196;7.074;2022-12-29T05:52:54;97634.94;;;11.11;100.00
19576;BME280;41589;51.196;7.074;2022-12-29T05:57:59;97628.53;;;11.10;100.00
19576;BME280;41589;51.196;7.074;2022-12-29T06:03:01;97648.84;;;11.20;100.00
19576;BME280;41589;51.196;7.074;2022-12-29T06:08:02;97639.94;;;11.27;100.00
19576;BME280;41589;51.196;7.074;2022-12-29T06:13:04;97633.69;;;11.17;100.00
19576;BME280;41589;51.196;7.074;2022-12-29T06:18:09;97651.19;;;11.27;100.00
19576;BME280;41589;51.196;7.074;2022-12-29T06:23:12;97632.50;;;11.29;100.00
19576;BME280;41589;51.196;7.074;2022-12-29T06:28:13;97648.84;;;11.20;100.00
19576;BME280;41589;51.196;7.074;2022-12-29T06:33:14;97645.31;;;11.31;100.00
19576;BME280;41589;51.196;7.074;2022-12-29T06:38:15;97663.75;;;11.26;100.00
19576;BME280;41589;51.196;7.074;2022-12-29T06:43:16;97666.97;;;11.13;100.00
19576;BME280;41589;51.196;7.074;2022-12-29T06:48:45;97662.38;;;11.16;100.00
19576;BME280;41589;51.196;7.074;2022-12-29T06:53:46;97669.03;;;11.18;100.00
19576;BME280;41589;51.196;7.074;2022-12-29T06:58:46;97677.69;;;11.09;100.00
19576;BME280;41589;51.196;7.074;2022-12-29T07:03:47;97666.91;;;11.08;100.00
19576;BME280;41589;51.196;7.074;2022-12-29T07:08:50;97678.13;;;11.02;100.00
19576;BME280;41589;51.196;7.074;2022-12-29T07:13:51;97692.84;;;11.17;100.00
19576;BME280;41589;51.196;7.074;2022-12-29T07:18:51;97690.47;;;11.10;100.00
19576;BME280;41589;51.196;7.074;2022-12-29T07:29:30;97697.81;;;10.96;100.00
19576;BME280;41589;51.196;7.074;2022-12-29T07:34:31;97696.78;;;10.99;100.00
19576;BME280;41589;51.196;7.074;2022-12-29T07:39:31;97715.97;;;10.95;100.00
19576;BME280;41589;51.196;7.074;2022-12-29T07:44:31;97721.59;;;10.95;100.00
19576;BME280;41589;51.196;7.074;2022-12-29T07:49:52;97745.78;;;10.82;100.00
19576;BME280;41589;51.196;7.074;2022-12-29T07:54:52;97744.34;;;10.92;100.00
19576;BME280;41589;51.196;7.074;2022-12-29T07:59:53;97748.16;;;10.89;100.00
19576;BME280;41589;51.196;7.074;2022-12-29T08:04:53;97761.72;;;10.90;100.00
19576;BME280;41589;51.196;7.074;2022-12-29T08:09:53;97764.78;;;10.87;100.00
19576;BME280;41589;51.196;7.074;2022-12-29T08:14:54;97774.25;;;10.89;100.00
19576;BME280;41589;51.196;7.074;2022-12-29T08:19:54;97759.22;;;10.92;100.00
19576;BME280;41589;51.196;7.074;2022-12-29T08:24:55;97753.78;;;10.89;100.00
19576;BME280;41589;51.196;7.074;2022-12-29T08:29:55;97762.97;;;10.84;100.00
19576;BME280;41589;51.196;7.074;2022-12-29T08:34:55;97764.22;;;10.83;100.00
19576;BME280;41589;51.196;7.074;2022-12-29T08:39:56;97772.22;;;10.90;100.00
19576;BME280;41589;51.196;7.074;2022-12-29T08:44:58;97759.75;;;10.96;100.00
19576;BME280;41589;51.196;7.074;2022-12-29T08:49:58;97761.06;;;11.01;100.00
19576;BME280;41589;51.196;7.074;2022-12-29T08:54:59;97746.16;;;10.95;100.00
19576;BME280;41589;51.196;7.074;2022-12-29T08:59:59;97762.72;;;10.87;100.00
19576;BME280;41589;51.196;7.074;2022-12-29T09:05:00;97787.78;;;10.85;100.00
19576;BME280;41589;51.196;7.074;2022-12-29T09:10:01;97803.81;;;10.74;100.00
19576;BME280;41589;51.196;7.074;2022-12-29T09:15:02;97803.72;;;10.68;100.00
19576;BME280;41589;51.196;7.074;2022-12-29T09:20:03;97794.28;;;10.71;100.00
19576;BME280;41589;51.196;7.074;2022-12-29T09:25:04;97819.56;;;10.91;100.00
19576;BME280;41589;51.196;7.074;2022-12-29T09:30:08;97827.25;;;10.91;100.00
19576;BME280;41589;51.196;7.074;2022-12-29T09:35:08;97841.78;;;10.84;100.00
19576;BME280;41589;51.196;7.074;2022-12-29T09:40:24;97838.66;;;10.82;100.00
19576;BME280;41589;51.196;7.074;2022-12-29T09:45:43;97855.34;;;10.85;100.00
19576;BME280;41589;51.196;7.074;2022-12-29T09:50:49;97850.91;;;10.79;100.00
19576;BME280;41589;51.196;7.074;2022-12-29T09:55:53;97854.78;;;10.81;100.00
19576;BME280;41589;51.196;7.074;2022-12-29T10:01:04;97866.25;;;10.78;100.00
19576;BME280;41589;51.196;7.074;2022-12-29T10:06:12;97861.06;;;10.70;100.00
19576;BME280;41589;51.196;7.074;2022-12-29T10:11:20;97851.91;;;10.76;100.00
19576;BME280;41589;51.196;7.074;2022-12-29T10:16:54;97858.38;;;10.82;100.00
19576;BME280;41589;51.196;7.074;2022-12-29T10:27:31;97858.69;;;10.63;100.00
19576;BME280;41589;51.196;7.074;2022-12-29T10:32:37;97858.13;;;10.59;100.00
19576;BME280;41589;51.196;7.074;2022-12-29T10:37:58;97866.56;;;10.59;100.00
19576;BME280;41589;51.196;7.074;2022-12-29T10:43:07;97871.50;;;10.64;100.00
19576;BME280;41589;51.196;7.074;2022-12-29T10:48:20;97879.53;;;10.71;100.00
19576;BME280;41589;51.196;7.074;2022-12-29T10:53:26;97876.34;;;10.64;100.00
19576;BME280;41589;51.196;7.074;2022-12-29T10:58:30;97869.59;;;10.56;100.00
19576;BME280;41589;51.196;7.074;2022-12-29T11:04:27;97869.81;;;10.52;100.00
19576;BME280;41589;51.196;7.074;2022-12-29T11:09:24;97871.34;;;10.53;100.00
19576;BME280;41589;51.196;7.074;2022-12-29T11:14:29;97889.78;;;10.54;100.00
19576;BME280;41589;51.196;7.074;2022-12-29T11:19:32;97887.25;;;10.56;100.00
19576;BME280;41589;51.196;7.074;2022-12-29T11:24:43;97888.56;;;10.61;100.00
19576;BME280;41589;51.196;7.074;2022-12-29T11:29:45;97889.19;;;10.70;100.00
19576;BME280;41589;51.196;7.074;2022-12-29T11:34:46;97891.75;;;10.68;100.00
19576;BME280;41589;51.196;7.074;2022-12-29T11:40:02;97901.03;;;10.75;100.00
19576;BME280;41589;51.196;7.074;2022-12-29T11:45:18;97907.09;;;10.67;100.00
19576;BME280;41589;51.196;7.074;2022-12-29T11:50:28;97915.66;;;10.58;100.00
19576;BME280;41589;51.196;7.074;2022-12-29T11:55:30;97916.03;;;10.66;100.00
19576;BME280;41589;51.196;7.074;2022-12-29T12:00:34;97923.78;;;10.51;100.00
19576;BME280;41589;51.196;7.074;2022-12-29T12:05:44;97920.94;;;10.51;100.00
19576;BME280;41589;51.196;7.074;2022-12-29T12:11:04;97927.25;;;10.46;100.00
19576;BME280;41589;51.196;7.074;2022-12-29T12:21:32;97931.22;;;10.54;100.00
19576;BME280;41589;51.196;7.074;2022-12-29T12:26:39;97944.34;;;10.42;100.00
19576;BME280;41589;51.196;7.074;2022-12-29T12:37:29;97947.47;;;10.29;100.00
19576;BME280;41589;51.196;7.074;2022-12-29T12:43:14;97964.25;;;10.38;100.00
19576;BME280;41589;51.196;7.074;2022-12-29T12:53:54;97956.28;;;10.37;100.00
19576;BME280;41589;51.196;7.074;2022-12-29T12:59:13;97961.31;;;10.48;100.00
19576;BME280;41589;51.196;7.074;2022-12-29T13:09:45;97964.41;;;10.50;100.00
19576;BME280;41589;51.196;7.074;2022-12-29T13:15:03;97969.69;;;10.42;100.00
19576;BME280;41589;51.196;7.074;2022-12-29T13:31:43;97964.06;;;10.42;100.00
19576;BME280;41589;51.196;7.074;2022-12-29T13:36:29;97963.06;;;10.45;100.00
19576;BME280;41589;51.196;7.074;2022-12-29T13:41:39;97970.59;;;10.54;100.00
19576;BME280;41589;51.196;7.074;2022-12-29T13:46:43;97964.75;;;10.57;100.00
19576;BME280;41589;51.196;7.074;2022-12-29T13:51:56;97984.84;;;10.50;100.00
19576;BME280;41589;51.196;7.074;2022-12-29T13:57:22;97982.34;;;10.52;100.00
19576;BME280;41589;51.196;7.074;2022-12-29T14:07:46;97996.81;;;10.45;100.00
19576;BME280;41589;51.196;7.074;2022-12-29T14:12:47;97982.25;;;10.47;100.00
19576;BME280;41589;51.196;7.074;2022-12-29T14:28:27;98000.69;;;10.48;100.00
19576;BME280;41589;51.196;7.074;2022-12-29T14:33:33;98017.66;;;10.53;100.00
19576;BME280;41589;51.196;7.074;2022-12-29T14:38:47;98021.38;;;10.45;100.00
19576;BME280;41589;51.196;7.074;2022-12-29T14:43:58;98004.41;;;10.39;100.00
19576;BME280;41589;51.196;7.074;2022-12-29T14:48:59;98035.16;;;10.42;100.00
19576;BME280;41589;51.196;7.074;2022-12-29T14:59:32;98034.50;;;10.33;100.00
19576;BME280;41589;51.196;7.074;2022-12-29T15:04:35;98034.78;;;10.35;100.00
19576;BME280;41589;51.196;7.074;2022-12-29T15:09:50;98042.22;;;10.38;100.00
19576;BME280;41589;51.196;7.074;2022-12-29T15:14:55;98045.13;;;10.43;100.00
19576;BME280;41589;51.196;7.074;2022-12-29T15:20:00;98037.59;;;10.35;100.00
19576;BME280;41589;51.196;7.074;2022-12-29T15:25:02;98042.25;;;10.23;100.00
19576;BME280;41589;51.196;7.074;2022-12-29T15:30:12;98041.28;;;10.26;100.00
19576;BME280;41589;51.196;7.074;2022-12-29T15:40:31;98052.34;;;10.30;100.00
19576;BME280;41589;51.196;7.074;2022-12-29T15:45:34;98064.56;;;10.27;100.00
19576;BME280;41589;51.196;7.074;2022-12-29T15:50:36;98059.69;;;10.27;100.00
19576;BME280;41589;51.196;7.074;2022-12-29T15:55:41;98063.00;;;10.26;100.00
19576;BME280;41589;51.196;7.074;2022-12-29T16:00:49;98068.63;;;10.26;100.00
19576;BME280;41589;51.196;7.074;2022-12-29T16:06:07;98084.16;;;10.21;100.00
19576;BME280;41589;51.196;7.074;2022-12-29T16:11:37;98088.59;;;10.28;100.00
19576;BME280;41589;51.196;7.074;2022-12-29T16:16:40;98087.22;;;10.38;100.00
19576;BME280;41589;51.196;7.074;2022-12-29T16:21:44;98090.16;;;10.29;100.00
19576;BME280;41589;51.196;7.074;2022-12-29T16:27:35;98090.25;;;10.34;100.00
19576;BME280;41589;51.196;7.074;2022-12-29T16:32:30;98087.22;;;10.38;100.00
19576;BME280;41589;51.196;7.074;2022-12-29T16:37:35;98094.34;;;10.33;100.00
19576;BME280;41589;51.196;7.074;2022-12-29T16:47:42;98093.38;;;10.22;100.00
19576;BME280;41589;51.196;7.074;2022-12-29T16:52:49;98110.63;;;10.14;100.00
19576;BME280;41589;51.196;7.074;2022-12-29T16:57:51;98111.78;;;10.23;100.00
19576;BME280;41589;51.196;7.074;2022-12-29T17:02:56;98122.28;;;10.22;100.00
19576;BME280;41589;51.196;7.074;2022-12-29T17:07:57;98119.53;;;10.13;100.00
19576;BME280;41589;51.196;7.074;2022-12-29T17:13:02;98136.13;;;10.11;100.00
19576;BME280;41589;51.196;7.074;2022-12-29T17:18:03;98134.47;;;10.19;100.00
19576;BME280;41589;51.196;7.074;2022-12-29T17:23:13;98140.22;;;10.10;100.00
19576;BME280;41589;51.196;7.074;2022-12-29T17:28:26;98155.53;;;10.09;100.00
19576;BME280;41589;51.196;7.074;2022-12-29T17:33:34;98143.28;;;9.97;100.00
19576;BME280;41589;51.196;7.074;2022-12-29T17:38:38;98145.44;;;10.02;100.00
19576;BME280;41589;51.196;7.074;2022-12-29T17:43:42;98147.88;;;10.09;100.00
19576;BME280;41589;51.196;7.074;2022-12-29T17:48:43;98143.97;;;10.07;100.00
19576;BME280;41589;51.196;7.074;2022-12-29T17:53:44;98150.38;;;10.07;100.00
19576;BME280;41589;51.196;7.074;2022-12-29T17:58:45;98159.69;;;9.99;100.00
19576;BME280;41589;51.196;7.074;2022-12-29T18:03:47;98171.00;;;9.90;100.00
19576;BME280;41589;51.196;7.074;2022-12-29T18:08:50;98186.41;;;9.94;100.00
19576;BME280;41589;51.196;7.074;2022-12-29T18:13:54;98185.56;;;9.79;100.00
19576;BME280;41589;51.196;7.074;2022-12-29T18:18:54;98195.97;;;9.64;100.00
19576;BME280;41589;51.196;7.074;2022-12-29T18:23:55;98197.44;;;9.59;100.00
19576;BME280;41589;51.196;7.074;2022-12-29T18:28:57;98212.88;;;9.54;100.00
19576;BME280;41589;51.196;7.074;2022-12-29T18:34:01;98217.44;;;9.52;100.00
19576;BME280;41589;51.196;7.074;2022-12-29T18:39:06;98209.50;;;9.50;100.00
19576;BME280;41589;51.196;7.074;2022-12-29T18:44:11;98233.22;;;9.49;100.00
19576;BME280;41589;51.196;7.074;2022-12-29T18:49:12;98225.47;;;9.35;100.00
19576;BME280;41589;51.196;7.074;2022-12-29T18:54:28;98231.59;;;9.34;100.00
19576;BME280;41589;51.196;7.074;2022-12-29T18:59:32;98228.78;;;9.34;100.00
19576;BME280;41589;51.196;7.074;2022-12-29T19:04:38;98242.13;;;9.48;100.00
19576;BME280;41589;51.196;7.074;2022-12-29T19:09:39;98240.16;;;9.39;100.00
19576;BME280;41589;51.196;7.074;2022-12-29T19:14:40;98249.06;;;9.38;100.00
19576;BME280;41589;51.196;7.074;2022-12-29T19:19:41;98244.69;;;9.37;100.00
19576;BME280;41589;51.196;7.074;2022-12-29T19:24:42;98253.56;;;9.35;100.00
19576;BME280;41589;51.196;7.074;2022-12-29T19:29:42;98255.44;;;9.38;100.00
19576;BME280;41589;51.196;7.074;2022-12-29T19:34:43;98258.38;;;9.44;100.00
19576;BME280;41589;51.196;7.074;2022-12-29T19:39:44;98269.59;;;9.44;99.19
19576;BME280;41589;51.196;7.074;2022-12-29T19:44:46;98260.88;;;9.42;99.76
19576;BME280;41589;51.196;7.074;2022-12-29T19:49:47;98266.84;;;9.35;98.42
19576;BME280;41589;51.196;7.074;2022-12-29T19:54:47;98277.56;;;9.45;99.40
19576;BME280;41589;51.196;7.074;2022-12-29T19:59:47;98294.00;;;9.38;98.24
19576;BME280;41589;51.196;7.074;2022-12-29T20:04:49;98295.25;;;9.37;98.29
19576;BME280;41589;51.196;7.074;2022-12-29T20:09:49;98300.72;;;9.31;97.96
19576;BME280;41589;51.196;7.074;2022-12-29T20:14:50;98302.78;;;9.21;97.46
19576;BME280;41589;51.196;7.074;2022-12-29T20:19:51;98307.81;;;9.17;96.99
19576;BME280;41589;51.196;7.074;2022-12-29T20:24:51;98306.13;;;9.02;97.29
19576;BME280;41589;51.196;7.074;2022-12-29T20:29:52;98334.06;;;8.96;96.22
19576;BME280;41589;51.196;7.074;2022-12-29T20:34:52;98332.34;;;8.89;95.07
19576;BME280;41589;51.196;7.074;2022-12-29T20:39:53;98348.56;;;8.85;95.69
19576;BME280;41589;51.196;7.074;2022-12-29T20:44:53;98348.56;;;8.94;97.15
19576;BME280;41589;51.196;7.074;2022-12-29T20:49:54;98346.69;;;8.91;95.75
19576;BME280;41589;51.196;7.074;2022-12-29T20:54:54;98352.94;;;8.95;96.60
19576;BME280;41589;51.196;7.074;2022-12-29T20:59:54;98354.97;;;8.95;96.56
19576;BME280;41589;51.196;7.074;2022-12-29T21:04:56;98357.31;;;8.87;95.13
19576;BME280;41589;51.196;7.074;2022-12-29T21:09:56;98355.88;;;8.83;95.08
19576;BME280;41589;51.196;7.074;2022-12-29T21:14:57;98347.03;;;8.84;94.80
19576;BME280;41589;51.196;7.074;2022-12-29T21:19:58;98358.06;;;8.88;94.46
19576;BME280;41589;51.196;7.074;2022-12-29T21:24:58;98349.06;;;8.84;94.66
19576;BME280;41589;51.196;7.074;2022-12-29T21:29:59;98352.94;;;8.95;95.37
19576;BME280;41589;51.196;7.074;2022-12-29T21:35:00;98347.75;;;8.94;94.91
19576;BME280;41589;51.196;7.074;2022-12-29T21:40:01;98344.53;;;8.86;93.47
19576;BME280;41589;51.196;7.074;2022-12-29T21:45:05;98361.06;;;8.75;93.06
19576;BME280;41589;51.196;7.074;2022-12-29T21:50:24;98352.94;;;8.68;91.62
19576;BME280;41589;51.196;7.074;2022-12-29T21:55:25;98348.13;;;8.68;93.02
19576;BME280;41589;51.196;7.074;2022-12-29T22:00:28;98349.19;;;8.71;92.44
19576;BME280;41589;51.196;7.074;2022-12-29T22:05:47;98362.31;;;8.74;92.88
19576;BME280;41589;51.196;7.074;2022-12-29T22:11:12;98368.41;;;8.63;92.71
19576;BME280;41589;51.196;7.074;2022-12-29T22:16:31;98368.22;;;8.67;92.02
19576;BME280;41589;51.196;7.074;2022-12-29T22:21:31;98381.78;;;8.59;91.26
19576;BME280;41589;51.196;7.074;2022-12-29T22:26:32;98371.50;;;8.65;93.35
19576;BME280;41589;51.196;7.074;2022-12-29T22:31:32;98378.66;;;8.66;92.19
19576;BME280;41589;51.196;7.074;2022-12-29T22:36:33;98389.59;;;8.64;91.05
19576;BME280;41589;51.196;7.074;2022-12-29T22:41:34;98394.88;;;8.62;92.28
19576;BME280;41589;51.196;7.074;2022-12-29T22:46:34;98404.84;;;8.73;92.28
19576;BME280;41589;51.196;7.074;2022-12-29T22:51:35;98412.81;;;8.65;92.15
19576;BME280;41589;51.196;7.074;2022-12-29T22:56:35;98408.75;;;8.57;91.07
19576;BME280;41589;51.196;7.074;2022-12-29T23:01:41;98429.75;;;8.52;91.53
19576;BME280;41589;51.196;7.074;2022-12-29T23:06:41;98426.06;;;8.55;91.68
19576;BME280;41589;51.196;7.074;2022-12-29T23:11:44;98434.47;;;8.55;91.12
19576;BME280;41589;51.196;7.074;2022-12-29T23:16:44;98425.56;;;8.48;90.64
19576;BME280;41589;51.196;7.074;2022-12-29T23:21:45;98442.88;;;8.55;90.73
19576;BME280;41589;51.196;7.074;2022-12-29T23:26:46;98456.41;;;8.48;91.07
19576;BME280;41589;51.196;7.074;2022-12-29T23:31:47;98461.25;;;8.47;90.60
19576;BME280;41589;51.196;7.074;2022-12-29T23:36:48;98482.44;;;8.48;91.42
19576;BME280;41589;51.196;7.074;2022-12-29T23:41:50;98484.72;;;8.31;90.19
19576;BME280;41589;51.196;7.074;2022-12-29T23:46:51;98497.06;;;8.34;90.39
19576;BME280;41589;51.196;7.074;2022-12-29T23:51:51;98505.13;;;8.23;89.20
19576;BME280;41589;51.196;7.074;2022-12-29T23:56:52;98520.25;;;8.25;89.49
